createdAt,value
2017-08-26T00:00:10.495Z,88.3
2017-08-26T00:01:11.914Z,90.3
2017-08-26T00:02:13.286Z,89.1
2017-08-26T00:03:14.684Z,90.1
2017-08-26T00:04:16.060Z,90.1
2017-08-26T00:05:17.470Z,90.2
2017-08-26T00:06:18.835Z,90.4
2017-08-26T00:07:20.242Z,90.3
2017-08-26T00:08:21.616Z,90.5
2017-08-26T00:09:23.022Z,91.4
2017-08-26T00:10:24.397Z,90.5
2017-08-26T00:11:25.804Z,90.4
2017-08-26T00:12:27.178Z,89.7
2017-08-26T00:13:28.656Z,89.2
2017-08-26T00:14:30.043Z,88.5
2017-08-26T00:15:31.466Z,88.3
2017-08-26T00:16:32.841Z,88.5
2017-08-26T00:17:34.247Z,88.4
2017-08-26T00:18:35.623Z,88.7
2017-08-26T00:19:37.023Z,88.8
2017-08-26T00:20:38.398Z,88.6
2017-08-26T00:21:39.804Z,90.1
2017-08-26T00:22:41.189Z,89.2
2017-08-26T00:23:42.584Z,88.5
2017-08-26T00:24:43.952Z,88.4
2017-08-26T00:25:45.363Z,88.6
2017-08-26T00:26:46.738Z,87.8
2017-08-26T00:27:48.143Z,88.5
2017-08-26T00:28:49.518Z,88.6
2017-08-26T00:29:50.921Z,88.7
2017-08-26T00:30:52.303Z,88.5
2017-08-26T00:31:53.706Z,88.6
2017-08-26T00:32:55.075Z,88.4
2017-08-26T00:33:56.492Z,88.4
2017-08-26T00:34:57.866Z,88.7
2017-08-26T00:35:59.302Z,88.6
2017-08-26T00:37:00.676Z,89.2
2017-08-26T00:38:02.154Z,89.1
2017-08-26T00:39:03.532Z,90.7
2017-08-26T00:40:04.926Z,90.2
2017-08-26T00:41:06.308Z,90.0
2017-08-26T00:42:07.706Z,89.8
2017-08-26T00:43:09.081Z,91.0
2017-08-26T00:44:10.483Z,92.6
2017-08-26T00:45:11.856Z,92.1
2017-08-26T00:46:13.265Z,92.8
2017-08-26T00:47:14.597Z,91.4
2017-08-26T00:48:16.041Z,90.9
2017-08-26T00:49:17.416Z,91.0
2017-08-26T00:50:18.819Z,91.2
2017-08-26T00:51:20.194Z,90.8
2017-08-26T00:52:21.604Z,90.9
2017-08-26T00:53:22.974Z,91.8
2017-08-26T00:54:24.377Z,91.7
2017-08-26T00:55:25.760Z,91.3
2017-08-26T00:56:27.159Z,90.9
2017-08-26T00:57:28.532Z,91.3
2017-08-26T00:58:29.940Z,90.7
2017-08-26T00:59:31.319Z,91.0
2017-08-26T01:00:32.718Z,91.8
2017-08-26T01:01:34.099Z,90.9
2017-08-26T01:02:35.497Z,91.6
2017-08-26T01:03:36.875Z,91.4
2017-08-26T01:04:38.279Z,92.6
2017-08-26T01:05:39.652Z,92.7
2017-08-26T01:06:41.059Z,92.6
2017-08-26T01:07:42.432Z,92.0
2017-08-26T01:08:43.844Z,91.9
2017-08-26T01:09:45.219Z,91.9
2017-08-26T01:10:46.621Z,91.9
2017-08-26T01:11:47.992Z,92.8
2017-08-26T01:12:49.396Z,92.6
2017-08-26T01:13:50.772Z,92.5
2017-08-26T01:14:52.182Z,92.9
2017-08-26T01:15:53.575Z,93.2
2017-08-26T01:16:55.057Z,93.1
2017-08-26T01:17:56.445Z,92.4
2017-08-26T01:18:57.841Z,92.6
2017-08-26T01:19:59.217Z,93.8
2017-08-26T01:21:00.619Z,94.7
2017-08-26T01:22:02.026Z,94.0
2017-08-26T01:23:03.500Z,93.2
2017-08-26T01:24:04.873Z,93.4
2017-08-26T01:25:06.281Z,93.5
2017-08-26T01:26:07.654Z,92.9
2017-08-26T01:27:09.063Z,93.7
2017-08-26T01:28:10.437Z,93.7
2017-08-26T01:29:11.838Z,93.2
2017-08-26T01:30:13.607Z,93.2
2017-08-26T01:31:15.021Z,93.7
2017-08-26T01:32:16.410Z,93.8
2017-08-26T01:33:17.815Z,93.6
2017-08-26T01:34:19.189Z,94.3
2017-08-26T01:35:20.588Z,94.4
2017-08-26T01:36:21.963Z,94.3
2017-08-26T01:37:23.368Z,94.4
2017-08-26T01:38:24.743Z,94.6
2017-08-26T01:39:26.147Z,94.4
2017-08-26T01:40:27.520Z,94.7
2017-08-26T01:41:28.898Z,94.6
2017-08-26T01:42:30.278Z,93.6
2017-08-26T01:43:31.725Z,94.0
2017-08-26T01:44:33.080Z,93.6
2017-08-26T01:45:34.491Z,93.2
2017-08-26T01:46:35.861Z,93.5
2017-08-26T01:47:37.275Z,93.5
2017-08-26T01:48:38.647Z,93.5
2017-08-26T01:49:40.047Z,93.3
2017-08-26T01:50:41.424Z,93.9
2017-08-26T01:51:42.827Z,94.1
2017-08-26T01:52:44.210Z,93.7
2017-08-26T01:53:45.613Z,94.5
2017-08-26T01:54:46.985Z,94.7
2017-08-26T01:55:48.386Z,94.8
2017-08-26T01:56:49.768Z,94.3
2017-08-26T01:57:51.163Z,93.4
2017-08-26T01:58:52.543Z,93.4
2017-08-26T01:59:53.942Z,94.8
2017-08-26T02:00:55.321Z,95.9
2017-08-26T02:01:57.116Z,97.0
2017-08-26T02:02:58.489Z,96.0
2017-08-26T02:03:59.914Z,94.8
2017-08-26T02:05:01.289Z,95.6
2017-08-26T02:06:02.695Z,94.5
2017-08-26T02:07:04.062Z,94.6
2017-08-26T02:08:05.473Z,95.5
2017-08-26T02:09:06.848Z,94.8
2017-08-26T02:10:08.258Z,95.0
2017-08-26T02:11:09.633Z,95.8
2017-08-26T02:12:11.036Z,96.4
2017-08-26T02:13:12.412Z,96.8
2017-08-26T02:14:14.179Z,96.8
2017-08-26T02:15:15.576Z,97.9
2017-08-26T02:16:17.000Z,97.3
2017-08-26T02:17:18.377Z,97.8
2017-08-26T02:18:19.782Z,97.3
2017-08-26T02:19:21.158Z,97.5
2017-08-26T02:20:22.561Z,97.2
2017-08-26T02:21:23.941Z,97.6
2017-08-26T02:22:25.338Z,97.6
2017-08-26T02:23:26.812Z,98.0
2017-08-26T02:24:28.231Z,97.4
2017-08-26T02:25:29.605Z,97.5
2017-08-26T02:26:31.000Z,97.9
2017-08-26T02:27:32.380Z,98.6
2017-08-26T02:28:33.783Z,98.6
2017-08-26T02:29:35.173Z,99.5
2017-08-26T02:30:36.561Z,99.4
2017-08-26T02:31:37.933Z,98.9
2017-08-26T02:32:39.341Z,100.0
2017-08-26T02:33:40.716Z,99.2
2017-08-26T02:34:42.119Z,99.2
2017-08-26T02:35:43.491Z,99.2
2017-08-26T02:36:44.903Z,98.6
2017-08-26T02:37:46.276Z,100.0
2017-08-26T02:38:47.709Z,100.0
2017-08-26T02:39:49.093Z,100.0
2017-08-26T02:40:50.567Z,100.0
2017-08-26T02:41:51.941Z,100.0
2017-08-26T02:42:53.344Z,100.0
2017-08-26T02:43:54.716Z,100.0
2017-08-26T02:44:56.112Z,100.0
2017-08-26T02:45:57.498Z,100.0
2017-08-26T02:46:58.901Z,100.0
2017-08-26T02:48:00.278Z,100.0
2017-08-26T02:49:01.690Z,100.0
2017-08-26T02:50:03.065Z,100.0
2017-08-26T02:51:04.469Z,100.0
2017-08-26T02:52:05.839Z,100.0
2017-08-26T02:53:07.242Z,100.0
2017-08-26T02:54:08.622Z,100.0
2017-08-26T02:55:10.019Z,99.8
2017-08-26T02:56:11.394Z,100.0
2017-08-26T02:57:12.801Z,100.0
2017-08-26T02:58:14.172Z,100.0
2017-08-26T02:59:15.580Z,100.0
2017-08-26T03:00:16.954Z,100.0
2017-08-26T03:01:18.361Z,100.0
2017-08-26T03:02:19.735Z,100.0
2017-08-26T03:03:21.129Z,100.0
2017-08-26T03:04:22.523Z,100.0
2017-08-26T03:05:23.918Z,100.0
2017-08-26T03:06:25.294Z,100.0
2017-08-26T03:07:26.698Z,100.0
2017-08-26T03:08:28.076Z,100.0
2017-08-26T03:09:29.476Z,100.0
2017-08-26T03:10:30.855Z,100.0
2017-08-26T03:11:32.256Z,100.0
2017-08-26T03:12:33.634Z,100.0
2017-08-26T03:13:35.034Z,100.0
2017-08-26T03:14:36.407Z,100.0
2017-08-26T03:15:37.813Z,100.0
2017-08-26T03:16:39.191Z,100.0
2017-08-26T03:17:40.597Z,100.0
2017-08-26T03:18:41.972Z,100.0
2017-08-26T03:19:43.377Z,100.0
2017-08-26T03:20:44.756Z,100.0
2017-08-26T03:21:46.148Z,100.0
2017-08-26T03:22:47.532Z,100.0
2017-08-26T03:23:48.929Z,100.0
2017-08-26T03:24:50.315Z,100.0
2017-08-26T03:25:51.720Z,100.0
2017-08-26T03:26:53.090Z,100.0
2017-08-26T03:27:54.495Z,100.0
2017-08-26T03:28:55.868Z,100.0
2017-08-26T03:29:57.281Z,100.0
2017-08-26T03:30:58.652Z,100.0
2017-08-26T03:32:00.055Z,100.0
2017-08-26T03:33:01.436Z,100.0
2017-08-26T03:34:02.834Z,100.0
2017-08-26T03:35:04.207Z,100.0
2017-08-26T03:36:05.615Z,100.0
2017-08-26T03:37:06.992Z,100.0
2017-08-26T03:38:08.397Z,100.0
2017-08-26T03:39:09.770Z,100.0
2017-08-26T03:40:11.173Z,100.0
2017-08-26T03:41:12.548Z,100.0
2017-08-26T03:42:13.951Z,100.0
2017-08-26T03:43:15.330Z,100.0
2017-08-26T03:44:16.732Z,100.0
2017-08-26T03:45:18.105Z,100.0
2017-08-26T03:46:19.512Z,100.0
2017-08-26T03:47:20.886Z,100.0
2017-08-26T03:48:22.291Z,100.0
2017-08-26T03:49:23.668Z,100.0
2017-08-26T03:50:25.070Z,100.0
2017-08-26T03:51:26.444Z,100.0
2017-08-26T03:52:27.851Z,100.0
2017-08-26T03:53:29.226Z,100.0
2017-08-26T03:54:30.629Z,100.0
2017-08-26T03:55:32.016Z,100.0
2017-08-26T03:56:33.430Z,100.0
2017-08-26T03:57:34.783Z,100.0
2017-08-26T03:58:36.186Z,100.0
2017-08-26T03:59:37.566Z,100.0
2017-08-26T04:00:38.969Z,100.0
2017-08-26T04:01:40.343Z,100.0
2017-08-26T04:02:41.747Z,100.0
2017-08-26T04:03:43.122Z,100.0
2017-08-26T04:04:44.924Z,100.0
2017-08-26T04:05:46.302Z,100.0
2017-08-26T04:06:47.724Z,100.0
2017-08-26T04:07:49.101Z,100.0
2017-08-26T04:08:50.498Z,100.0
2017-08-26T04:09:51.868Z,100.0
2017-08-26T04:10:53.273Z,100.0
2017-08-26T04:11:54.654Z,100.0
2017-08-26T04:12:56.058Z,100.0
2017-08-26T04:13:57.435Z,100.0
2017-08-26T04:14:58.839Z,100.0
2017-08-26T04:16:00.215Z,100.0
2017-08-26T04:17:01.593Z,100.0
2017-08-26T04:18:02.970Z,100.0
2017-08-26T04:19:04.397Z,100.0
2017-08-26T04:20:05.775Z,100.0
2017-08-26T04:21:07.176Z,100.0
2017-08-26T04:22:08.552Z,100.0
2017-08-26T04:23:09.959Z,100.0
2017-08-26T04:24:11.337Z,100.0
2017-08-26T04:25:12.738Z,100.0
2017-08-26T04:26:14.166Z,100.0
2017-08-26T04:27:15.624Z,100.0
2017-08-26T04:28:17.007Z,100.0
2017-08-26T04:29:18.398Z,100.0
2017-08-26T04:30:19.780Z,100.0
2017-08-26T04:31:21.179Z,100.0
2017-08-26T04:32:22.565Z,100.0
2017-08-26T04:33:23.959Z,100.0
2017-08-26T04:34:25.339Z,100.0
2017-08-26T04:35:26.737Z,100.0
2017-08-26T04:36:28.116Z,100.0
2017-08-26T04:37:29.518Z,100.0
2017-08-26T04:38:30.896Z,100.0
2017-08-26T04:39:32.299Z,100.0
2017-08-26T04:40:33.676Z,100.0
2017-08-26T04:41:35.077Z,100.0
2017-08-26T04:42:36.461Z,100.0
2017-08-26T04:43:37.859Z,100.0
2017-08-26T04:44:39.399Z,100.0
2017-08-26T04:45:41.097Z,100.0
2017-08-26T04:46:42.473Z,100.0
2017-08-26T04:47:43.927Z,100.0
2017-08-26T04:48:45.308Z,100.0
2017-08-26T04:49:46.707Z,100.0
2017-08-26T04:50:48.095Z,100.0
2017-08-26T04:51:49.491Z,100.0
2017-08-26T04:52:50.866Z,100.0
2017-08-26T04:53:52.282Z,100.0
2017-08-26T04:54:53.664Z,100.0
2017-08-26T04:55:55.148Z,100.0
2017-08-26T04:56:56.524Z,100.0
2017-08-26T04:57:57.931Z,100.0
2017-08-26T04:58:59.317Z,100.0
2017-08-26T05:00:00.709Z,100.0
2017-08-26T05:01:02.085Z,100.0
2017-08-26T05:02:03.498Z,100.0
2017-08-26T05:03:04.871Z,100.0
2017-08-26T05:04:06.285Z,100.0
2017-08-26T05:05:07.658Z,100.0
2017-08-26T05:06:09.147Z,100.0
2017-08-26T05:07:10.525Z,100.0
2017-08-26T05:08:11.929Z,100.0
2017-08-26T05:09:13.314Z,100.0
2017-08-26T05:10:14.713Z,100.0
2017-08-26T05:11:16.103Z,100.0
2017-08-26T05:12:17.592Z,100.0
2017-08-26T05:13:18.974Z,100.0
2017-08-26T05:14:20.400Z,100.0
2017-08-26T05:15:21.785Z,100.0
2017-08-26T05:16:23.267Z,100.0
2017-08-26T05:17:24.638Z,100.0
2017-08-26T05:18:26.034Z,100.0
2017-08-26T05:19:27.413Z,100.0
2017-08-26T05:20:28.814Z,100.0
2017-08-26T05:21:30.195Z,100.0
2017-08-26T05:22:31.594Z,100.0
2017-08-26T05:23:32.973Z,100.0
2017-08-26T05:24:34.372Z,100.0
2017-08-26T05:25:35.749Z,100.0
2017-08-26T05:26:37.151Z,100.0
2017-08-26T05:27:38.544Z,100.0
2017-08-26T05:28:40.033Z,100.0
2017-08-26T05:29:41.411Z,100.0
2017-08-26T05:30:42.813Z,100.0
2017-08-26T05:31:44.191Z,100.0
2017-08-26T05:32:45.595Z,100.0
2017-08-26T05:33:46.974Z,100.0
2017-08-26T05:34:48.372Z,100.0
2017-08-26T05:35:49.749Z,100.0
2017-08-26T05:36:51.152Z,100.0
2017-08-26T05:37:52.530Z,100.0
2017-08-26T05:38:53.934Z,100.0
2017-08-26T05:39:55.319Z,100.0
2017-08-26T05:40:56.723Z,100.0
2017-08-26T05:41:58.108Z,100.0
2017-08-26T05:42:59.598Z,100.0
2017-08-26T05:44:00.976Z,100.0
2017-08-26T05:45:02.375Z,100.0
2017-08-26T05:46:03.751Z,100.0
2017-08-26T05:47:05.164Z,100.0
2017-08-26T05:48:06.539Z,100.0
2017-08-26T05:49:07.942Z,100.0
2017-08-26T05:50:09.312Z,100.0
2017-08-26T05:51:10.713Z,100.0
2017-08-26T05:52:12.089Z,100.0
2017-08-26T05:53:13.509Z,100.0
2017-08-26T05:54:14.893Z,100.0
2017-08-26T05:55:16.389Z,100.0
2017-08-26T05:56:17.761Z,100.0
2017-08-26T05:57:19.153Z,100.0
2017-08-26T05:58:20.537Z,100.0
2017-08-26T05:59:21.961Z,100.0
2017-08-26T06:00:23.344Z,100.0
2017-08-26T06:01:25.846Z,100.0
2017-08-26T06:02:27.226Z,100.0
2017-08-26T06:03:28.731Z,100.0
2017-08-26T06:04:30.111Z,100.0
2017-08-26T06:05:31.606Z,100.0
2017-08-26T06:06:33.006Z,100.0
2017-08-26T06:07:34.498Z,100.0
2017-08-26T06:08:35.908Z,100.0
2017-08-26T06:09:37.785Z,100.0
2017-08-26T06:10:39.170Z,100.0
2017-08-26T06:11:40.674Z,100.0
2017-08-26T06:12:42.054Z,100.0
2017-08-26T06:13:43.550Z,100.0
2017-08-26T06:14:44.923Z,100.0
2017-08-26T06:15:46.377Z,100.0
2017-08-26T06:16:47.773Z,100.0
2017-08-26T06:17:49.206Z,100.0
2017-08-26T06:18:50.604Z,100.0
2017-08-26T06:19:52.092Z,100.0
2017-08-26T06:20:53.467Z,100.0
2017-08-26T06:21:54.865Z,100.0
2017-08-26T06:22:56.250Z,100.0
2017-08-26T06:23:57.648Z,100.0
2017-08-26T06:24:59.031Z,100.0
2017-08-26T06:26:00.536Z,100.0
2017-08-26T06:27:01.915Z,100.0
2017-08-26T06:28:03.417Z,100.0
2017-08-26T06:29:04.799Z,100.0
2017-08-26T06:30:06.290Z,100.0
2017-08-26T06:31:07.704Z,100.0
2017-08-26T06:32:09.190Z,99.1
2017-08-26T06:33:10.571Z,97.8
2017-08-26T06:34:12.107Z,96.9
2017-08-26T06:35:13.506Z,96.9
2017-08-26T06:36:14.967Z,98.0
2017-08-26T06:37:16.352Z,98.1
2017-08-26T06:38:17.820Z,100.0
2017-08-26T06:39:19.202Z,99.3
2017-08-26T06:40:20.603Z,100.0
2017-08-26T06:41:21.981Z,100.0
2017-08-26T06:42:23.388Z,100.0
2017-08-26T06:43:24.770Z,99.4
2017-08-26T06:44:26.262Z,99.5
2017-08-26T06:45:28.081Z,100.0
2017-08-26T06:46:29.576Z,97.0
2017-08-26T06:47:30.965Z,95.8
2017-08-26T06:48:32.443Z,97.2
2017-08-26T06:49:33.832Z,97.0
2017-08-26T06:50:36.240Z,97.9
2017-08-26T06:51:37.621Z,95.6
2017-08-26T06:52:39.008Z,96.8
2017-08-26T06:53:40.401Z,96.0
2017-08-26T06:54:41.796Z,93.7
2017-08-26T06:55:43.189Z,90.2
2017-08-26T06:56:44.682Z,89.7
2017-08-26T06:57:46.062Z,90.4
2017-08-26T06:58:47.475Z,89.1
2017-08-26T06:59:48.852Z,90.1
2017-08-26T07:00:50.349Z,91.4
2017-08-26T07:01:51.733Z,91.3
2017-08-26T07:02:53.242Z,91.5
2017-08-26T07:03:54.611Z,90.2
2017-08-26T07:04:56.107Z,89.5
2017-08-26T07:05:57.504Z,87.9
2017-08-26T07:06:58.991Z,87.7
2017-08-26T07:08:00.390Z,88.8
2017-08-26T07:09:01.880Z,89.5
2017-08-26T07:10:03.266Z,89.3
2017-08-26T07:11:04.754Z,90.7
2017-08-26T07:12:06.132Z,90.8
2017-08-26T07:13:07.637Z,90.5
2017-08-26T07:14:09.021Z,89.6
2017-08-26T07:15:10.517Z,86.6
2017-08-26T07:16:11.902Z,87.1
2017-08-26T07:17:13.412Z,86.5
2017-08-26T07:18:14.786Z,86.0
2017-08-26T07:19:16.276Z,84.8
2017-08-26T07:20:17.676Z,85.9
2017-08-26T07:21:19.168Z,84.0
2017-08-26T07:22:20.944Z,84.2
2017-08-26T07:23:22.357Z,84.8
2017-08-26T07:24:23.750Z,84.6
2017-08-26T07:25:25.237Z,85.1
2017-08-26T07:26:26.620Z,85.3
2017-08-26T07:27:28.108Z,83.7
2017-08-26T07:28:29.531Z,82.6
2017-08-26T07:29:31.015Z,82.6
2017-08-26T07:30:32.376Z,81.4
2017-08-26T07:31:33.796Z,81.1
2017-08-26T07:32:35.591Z,80.8
2017-08-26T07:33:37.068Z,80.8
2017-08-26T07:34:38.460Z,80.3
2017-08-26T07:35:39.978Z,80.1
2017-08-26T07:36:41.368Z,80.2
2017-08-26T07:37:42.832Z,80.3
2017-08-26T07:38:44.218Z,80.3
2017-08-26T07:39:45.714Z,79.9
2017-08-26T07:40:47.104Z,80.4
2017-08-26T07:41:48.608Z,80.8
2017-08-26T07:42:50.015Z,81.3
2017-08-26T07:43:51.481Z,81.5
2017-08-26T07:44:52.864Z,81.9
2017-08-26T07:45:54.247Z,81.4
2017-08-26T07:46:55.672Z,82.0
2017-08-26T07:47:57.080Z,82.9
2017-08-26T07:48:58.479Z,82.6
2017-08-26T07:49:59.870Z,82.1
2017-08-26T07:51:01.683Z,82.8
2017-08-26T07:52:03.187Z,83.7
2017-08-26T07:53:04.990Z,82.8
2017-08-26T07:54:07.255Z,82.8
2017-08-26T07:55:08.651Z,83.0
2017-08-26T07:56:10.056Z,82.0
2017-08-26T07:57:11.445Z,82.3
2017-08-26T07:58:12.846Z,83.0
2017-08-26T07:59:14.228Z,83.8
2017-08-26T08:00:15.621Z,83.9
2017-08-26T08:01:17.006Z,82.9
2017-08-26T08:02:18.403Z,83.3
2017-08-26T08:03:19.778Z,83.7
2017-08-26T08:04:21.167Z,83.7
2017-08-26T08:05:22.567Z,84.0
2017-08-26T08:06:24.342Z,84.6
2017-08-26T08:07:25.727Z,84.3
2017-08-26T08:08:27.116Z,84.7
2017-08-26T08:09:28.512Z,85.5
2017-08-26T08:10:29.901Z,84.2
2017-08-26T08:11:31.283Z,82.8
2017-08-26T08:12:32.682Z,83.7
2017-08-26T08:13:34.067Z,83.9
2017-08-26T08:14:35.466Z,83.7
2017-08-26T08:15:36.843Z,84.3
2017-08-26T08:16:38.259Z,83.7
2017-08-26T08:17:39.654Z,82.0
2017-08-26T08:18:41.047Z,81.2
2017-08-26T08:19:42.433Z,81.1
2017-08-26T08:20:43.830Z,81.4
2017-08-26T08:21:45.218Z,81.8
2017-08-26T08:22:46.608Z,82.2
2017-08-26T08:23:48.021Z,83.1
2017-08-26T08:24:49.415Z,81.8
2017-08-26T08:25:50.809Z,81.0
2017-08-26T08:26:52.201Z,81.8
2017-08-26T08:27:53.585Z,81.7
2017-08-26T08:28:54.984Z,81.5
2017-08-26T08:29:56.377Z,81.5
2017-08-26T08:30:57.768Z,82.1
2017-08-26T08:31:59.150Z,80.1
2017-08-26T08:33:00.543Z,80.1
2017-08-26T08:34:01.936Z,80.9
2017-08-26T08:35:03.317Z,78.8
2017-08-26T08:36:04.720Z,78.7
2017-08-26T08:37:06.100Z,78.9
2017-08-26T08:38:07.493Z,78.5
2017-08-26T08:39:08.876Z,77.6
2017-08-26T08:40:10.271Z,78.9
2017-08-26T08:41:11.664Z,77.8
2017-08-26T08:42:13.046Z,78.3
2017-08-26T08:43:14.434Z,78.6
2017-08-26T08:44:15.817Z,77.9
2017-08-26T08:45:17.217Z,75.9
2017-08-26T08:46:18.617Z,75.1
2017-08-26T08:47:20.006Z,74.9
2017-08-26T08:48:21.391Z,75.3
2017-08-26T08:49:22.798Z,75.1
2017-08-26T08:50:24.171Z,73.9
2017-08-26T08:51:25.567Z,75.1
2017-08-26T08:52:26.955Z,74.5
2017-08-26T08:53:28.345Z,75.3
2017-08-26T08:54:29.731Z,75.5
2017-08-26T08:55:31.123Z,74.9
2017-08-26T08:56:32.512Z,74.7
2017-08-26T08:57:33.907Z,74.7
2017-08-26T08:58:35.291Z,73.9
2017-08-26T08:59:36.686Z,74.0
2017-08-26T09:00:38.461Z,73.6
2017-08-26T09:01:39.861Z,73.1
2017-08-26T09:02:41.660Z,72.9
2017-08-26T09:03:43.149Z,73.2
2017-08-26T09:04:44.609Z,73.4
2017-08-26T09:05:46.375Z,74.2
2017-08-26T09:06:47.775Z,73.6
2017-08-26T09:07:49.166Z,74.4
2017-08-26T09:08:50.617Z,74.1
2017-08-26T09:09:52.311Z,73.1
2017-08-26T09:10:53.698Z,73.1
2017-08-26T09:11:55.108Z,73.1
2017-08-26T09:12:56.499Z,71.8
2017-08-26T09:13:57.895Z,72.9
2017-08-26T09:14:59.288Z,72.6
2017-08-26T09:16:00.683Z,70.5
2017-08-26T09:17:02.076Z,69.4
2017-08-26T09:18:03.475Z,69.3
2017-08-26T09:19:04.898Z,69.2
2017-08-26T09:20:06.290Z,69.2
2017-08-26T09:21:07.677Z,69.3
2017-08-26T09:22:09.080Z,69.2
2017-08-26T09:23:10.471Z,69.1
2017-08-26T09:24:11.874Z,69.3
2017-08-26T09:25:13.265Z,70.0
2017-08-26T09:26:14.654Z,69.1
2017-08-26T09:27:16.039Z,69.0
2017-08-26T09:28:17.434Z,69.1
2017-08-26T09:29:18.827Z,69.5
2017-08-26T09:30:20.219Z,69.2
2017-08-26T09:31:21.601Z,69.7
2017-08-26T09:32:23.004Z,69.1
2017-08-26T09:33:24.387Z,69.2
2017-08-26T09:34:25.795Z,69.0
2017-08-26T09:35:27.174Z,69.2
2017-08-26T09:36:28.567Z,69.6
2017-08-26T09:37:29.968Z,70.0
2017-08-26T09:38:31.360Z,69.5
2017-08-26T09:39:32.745Z,67.8
2017-08-26T09:40:34.133Z,68.8
2017-08-26T09:41:35.519Z,69.0
2017-08-26T09:42:36.915Z,68.9
2017-08-26T09:43:38.300Z,69.5
2017-08-26T09:44:39.685Z,68.5
2017-08-26T09:45:41.098Z,68.1
2017-08-26T09:46:42.486Z,68.0
2017-08-26T09:47:43.874Z,67.9
2017-08-26T09:48:45.264Z,68.1
2017-08-26T09:49:47.040Z,68.0
2017-08-26T09:50:48.436Z,67.5
2017-08-26T09:51:49.860Z,67.0
2017-08-26T09:52:51.277Z,66.3
2017-08-26T09:53:52.684Z,65.8
2017-08-26T09:54:54.071Z,66.6
2017-08-26T09:55:55.460Z,65.8
2017-08-26T09:56:56.860Z,66.0
2017-08-26T09:57:58.249Z,66.0
2017-08-26T09:58:59.639Z,66.4
2017-08-26T10:00:01.340Z,64.0
2017-08-26T10:01:02.737Z,64.4
2017-08-26T10:02:04.217Z,65.1
2017-08-26T10:03:05.601Z,63.8
2017-08-26T10:04:06.992Z,63.7
2017-08-26T10:05:08.397Z,63.5
2017-08-26T10:06:09.798Z,63.5
2017-08-26T10:07:11.187Z,63.7
2017-08-26T10:08:12.580Z,64.3
2017-08-26T10:09:13.968Z,64.1
2017-08-26T10:10:15.394Z,64.4
2017-08-26T10:11:16.798Z,63.6
2017-08-26T10:12:18.934Z,64.1
2017-08-26T10:13:21.254Z,64.3
2017-08-26T10:14:22.836Z,63.5
2017-08-26T10:15:24.195Z,63.5
2017-08-26T10:16:25.588Z,62.2
2017-08-26T10:17:26.979Z,63.8
2017-08-26T10:18:28.366Z,64.5
2017-08-26T10:19:29.755Z,64.4
2017-08-26T10:20:31.284Z,64.6
2017-08-26T10:21:34.016Z,63.9
2017-08-26T10:22:37.282Z,64.4
2017-08-26T10:23:39.945Z,64.4
2017-08-26T10:24:43.261Z,64.2
2017-08-26T10:25:45.004Z,65.4
2017-08-26T10:26:46.413Z,64.2
2017-08-26T10:27:47.804Z,64.8
2017-08-26T10:28:49.213Z,64.3
2017-08-26T10:29:50.610Z,64.8
2017-08-26T10:30:52.006Z,64.2
2017-08-26T10:31:53.421Z,63.4
2017-08-26T10:32:54.838Z,64.4
2017-08-26T10:33:56.251Z,63.7
2017-08-26T10:34:57.722Z,63.8
2017-08-26T10:35:59.134Z,62.9
2017-08-26T10:37:00.534Z,62.8
2017-08-26T10:38:01.928Z,62.2
2017-08-26T10:39:03.442Z,62.2
2017-08-26T10:40:04.797Z,62.4
2017-08-26T10:41:06.187Z,61.3
2017-08-26T10:42:07.603Z,60.5
2017-08-26T10:43:09.004Z,59.6
2017-08-26T10:44:10.385Z,59.5
2017-08-26T10:45:11.791Z,59.6
2017-08-26T10:46:13.180Z,60.5
2017-08-26T10:47:14.578Z,60.9
2017-08-26T10:48:15.983Z,60.3
2017-08-26T10:49:17.383Z,60.5
2017-08-26T10:50:18.781Z,61.3
2017-08-26T10:51:20.171Z,59.7
2017-08-26T10:52:21.568Z,60.3
2017-08-26T10:53:22.957Z,60.7
2017-08-26T10:54:24.352Z,60.6
2017-08-26T10:55:25.742Z,61.1
2017-08-26T10:56:27.133Z,61.2
2017-08-26T10:57:28.553Z,60.8
2017-08-26T10:58:29.944Z,61.0
2017-08-26T10:59:31.359Z,60.2
2017-08-26T11:00:32.744Z,59.3
2017-08-26T11:01:34.145Z,59.1
2017-08-26T11:02:35.539Z,59.6
2017-08-26T11:03:36.949Z,58.9
2017-08-26T11:04:38.333Z,60.6
2017-08-26T11:05:39.724Z,59.6
2017-08-26T11:06:41.113Z,59.4
2017-08-26T11:07:42.510Z,60.6
2017-08-26T11:08:43.894Z,60.4
2017-08-26T11:09:45.377Z,60.7
2017-08-26T11:10:46.762Z,61.1
2017-08-26T11:11:48.157Z,59.5
2017-08-26T11:12:49.546Z,59.3
2017-08-26T11:13:50.936Z,60.0
2017-08-26T11:14:52.321Z,59.7
2017-08-26T11:15:53.732Z,58.7
2017-08-26T11:16:55.106Z,58.6
2017-08-26T11:17:56.504Z,60.2
2017-08-26T11:18:57.890Z,59.6
2017-08-26T11:19:59.278Z,59.2
2017-08-26T11:21:00.665Z,59.6
2017-08-26T11:22:02.089Z,58.5
2017-08-26T11:23:03.493Z,58.7
2017-08-26T11:24:04.890Z,58.5
2017-08-26T11:25:06.280Z,58.8
2017-08-26T11:26:07.671Z,58.4
2017-08-26T11:27:09.058Z,58.9
2017-08-26T11:28:10.451Z,58.7
2017-08-26T11:29:11.836Z,58.7
2017-08-26T11:30:13.233Z,59.2
2017-08-26T11:31:14.620Z,59.7
2017-08-26T11:32:16.013Z,59.6
2017-08-26T11:33:17.397Z,59.5
2017-08-26T11:34:18.791Z,58.8
2017-08-26T11:35:20.192Z,59.1
2017-08-26T11:36:21.615Z,60.5
2017-08-26T11:37:23.046Z,59.5
2017-08-26T11:38:24.448Z,58.7
2017-08-26T11:39:25.837Z,59.3
2017-08-26T11:40:27.228Z,59.3
2017-08-26T11:41:28.615Z,60.7
2017-08-26T11:42:30.034Z,60.1
2017-08-26T11:43:31.413Z,59.3
2017-08-26T11:44:32.892Z,60.5
2017-08-26T11:45:34.300Z,60.5
2017-08-26T11:46:35.709Z,60.5
2017-08-26T11:47:37.081Z,59.6
2017-08-26T11:48:38.468Z,60.4
2017-08-26T11:49:39.853Z,60.7
2017-08-26T11:50:41.243Z,60.6
2017-08-26T11:51:42.639Z,59.4
2017-08-26T11:52:44.033Z,59.7
2017-08-26T11:53:45.426Z,60.5
2017-08-26T11:54:46.823Z,60.4
2017-08-26T11:55:48.215Z,60.0
2017-08-26T11:56:49.603Z,59.6
2017-08-26T11:57:51.002Z,60.5
2017-08-26T11:58:52.377Z,60.8
2017-08-26T11:59:53.771Z,60.7
2017-08-26T12:00:55.182Z,61.1
2017-08-26T12:01:56.568Z,60.5
2017-08-26T12:02:57.954Z,60.3
2017-08-26T12:03:59.344Z,59.6
2017-08-26T12:05:00.735Z,60.4
2017-08-26T12:06:02.124Z,61.1
2017-08-26T12:07:03.519Z,61.0
2017-08-26T12:08:04.925Z,59.8
2017-08-26T12:09:06.315Z,59.7
2017-08-26T12:10:07.703Z,58.6
2017-08-26T12:11:09.108Z,57.9
2017-08-26T12:12:10.500Z,58.2
2017-08-26T12:13:11.895Z,57.0
2017-08-26T12:14:13.294Z,57.3
2017-08-26T12:15:14.726Z,57.4
2017-08-26T12:16:16.116Z,57.5
2017-08-26T12:17:17.504Z,56.8
2017-08-26T12:18:18.885Z,57.0
2017-08-26T12:19:20.278Z,56.7
2017-08-26T12:20:21.689Z,56.4
2017-08-26T12:21:23.078Z,56.6
2017-08-26T12:22:24.470Z,56.3
2017-08-26T12:23:25.896Z,56.1
2017-08-26T12:24:27.275Z,55.5
2017-08-26T12:25:28.670Z,54.7
2017-08-26T12:26:30.061Z,54.7
2017-08-26T12:27:31.452Z,54.0
2017-08-26T12:28:32.841Z,55.8
2017-08-26T12:29:34.240Z,54.1
2017-08-26T12:30:35.623Z,52.6
2017-08-26T12:31:37.044Z,51.5
2017-08-26T12:32:38.472Z,50.2
2017-08-26T12:33:39.888Z,51.2
2017-08-26T12:34:41.272Z,50.7
2017-08-26T12:35:42.690Z,51.2
2017-08-26T12:36:44.108Z,50.8
2017-08-26T12:37:45.503Z,50.4
2017-08-26T12:38:46.921Z,49.4
2017-08-26T12:39:48.315Z,48.4
2017-08-26T12:40:49.702Z,47.8
2017-08-26T12:41:51.100Z,46.8
2017-08-26T12:42:52.481Z,47.3
2017-08-26T12:43:53.929Z,47.5
2017-08-26T12:44:55.321Z,46.4
2017-08-26T12:45:56.712Z,45.8
2017-08-26T12:46:58.104Z,47.2
2017-08-26T12:47:59.512Z,46.1
2017-08-26T12:49:00.894Z,46.0
2017-08-26T12:50:02.294Z,45.4
2017-08-26T12:51:03.686Z,44.5
2017-08-26T12:52:05.096Z,44.3
2017-08-26T12:53:06.481Z,44.6
2017-08-26T12:54:07.871Z,43.0
2017-08-26T12:55:09.269Z,43.6
2017-08-26T12:56:10.685Z,43.7
2017-08-26T12:57:12.079Z,42.9
2017-08-26T12:58:13.475Z,43.1
2017-08-26T12:59:14.879Z,41.8
2017-08-26T13:00:16.271Z,42.2
2017-08-26T13:01:17.669Z,41.8
2017-08-26T13:02:19.066Z,41.5
2017-08-26T13:03:20.478Z,41.7
2017-08-26T13:04:21.873Z,42.0
2017-08-26T13:05:23.267Z,42.4
2017-08-26T13:06:24.664Z,41.1
2017-08-26T13:07:26.078Z,40.0
2017-08-26T13:08:27.472Z,39.8
2017-08-26T13:09:28.855Z,40.0
2017-08-26T13:10:30.272Z,40.2
2017-08-26T13:11:31.668Z,41.3
2017-08-26T13:12:33.063Z,40.2
2017-08-26T13:13:34.468Z,40.3
2017-08-26T13:14:35.861Z,40.5
2017-08-26T13:15:37.384Z,40.5
2017-08-26T13:16:38.775Z,40.9
2017-08-26T13:17:40.171Z,40.4
2017-08-26T13:18:41.564Z,39.8
2017-08-26T13:19:43.269Z,40.7
2017-08-26T13:20:44.652Z,41.3
2017-08-26T13:21:46.045Z,41.0
2017-08-26T13:22:47.476Z,42.0
2017-08-26T13:23:48.870Z,42.1
2017-08-26T13:24:50.291Z,42.0
2017-08-26T13:25:51.724Z,42.0
2017-08-26T13:26:53.171Z,42.6
2017-08-26T13:27:54.601Z,43.8
2017-08-26T13:28:55.991Z,44.5